Time;durP1;ratioP1;P1;durP2;ratioP2;P2;SDS_P1;SDS_P2;PMS_P1;PMS_P2;Temp;Humidity;BMP_temperature;BMP_pressure;BME280_temperature;BME280_humidity;BME280_pressure;Samples;Min_cycle;Max_cycle;Signal;HPM_P1;HPM_P2
2021/12/10 00:00:51;;;;;;;24.98;9.75;;;;;;;;;;5084453;28;20127;-63
2021/12/10 00:03:23;;;;;;;27.27;10.27;;;;;;;;;;5082500;28;20044;-63
2021/12/10 00:05:52;;;;;;;25.17;9.55;;;;;;;;;;5082773;28;20131;-63
2021/12/10 00:08:21;;;;;;;21.17;8.98;;;;;;;;;;5076196;28;20496;-63
2021/12/10 00:10:49;;;;;;;22.10;9.80;;;;;;;;;;5076656;28;20045;-63
2021/12/10 00:13:16;;;;;;;28.20;10.13;;;;;;;;;;5080991;28;20054;-63
2021/12/10 00:15:43;;;;;;;20.48;9.43;;;;;;;;;;5082361;28;20158;-63
2021/12/10 00:18:11;;;;;;;23.75;10.52;;;;;;;;;;5086573;28;20079;-63
2021/12/10 00:20:38;;;;;;;25.20;9.60;;;;;;;;;;5080633;28;20130;-63
2021/12/10 00:23:10;;;;;;;29.08;10.57;;;;;;;;;;5084855;28;20774;-63
2021/12/10 00:25:39;;;;;;;25.55;9.57;;;;;;;;;;5079582;28;20050;-63
2021/12/10 00:28:19;;;;;;;20.13;9.20;;;;;;;;;;5078835;28;20110;-63
2021/12/10 00:31:01;;;;;;;25.60;9.93;;;;;;;;;;5079492;28;20055;-63
2021/12/10 00:33:30;;;;;;;19.13;9.30;;;;;;;;;;5079234;28;20139;-63
2021/12/10 00:35:56;;;;;;;25.02;9.77;;;;;;;;;;5079574;28;20123;-63
2021/12/10 00:38:23;;;;;;;20.67;8.87;;;;;;;;;;5087321;28;20053;-63
2021/12/10 00:40:50;;;;;;;26.50;10.35;;;;;;;;;;5080796;28;20131;-63
2021/12/10 00:43:16;;;;;;;15.88;8.27;;;;;;;;;;5080830;28;20150;-63
2021/12/10 00:45:43;;;;;;;20.08;8.85;;;;;;;;;;5080429;28;20048;-63
2021/12/10 00:48:10;;;;;;;21.15;6.85;;;;;;;;;;5078711;28;20086;-63
2021/12/10 00:50:41;;;;;;;24.87;10.30;;;;;;;;;;5080992;28;20173;-63
2021/12/10 00:53:07;;;;;;;27.67;9.77;;;;;;;;;;5079491;28;20170;-63
2021/12/10 00:55:34;;;;;;;21.48;7.80;;;;;;;;;;5083654;28;20072;-63
2021/12/10 00:58:01;;;;;;;21.90;9.10;;;;;;;;;;5086108;28;20080;-63
2021/12/10 01:00:30;;;;;;;20.65;7.55;;;;;;;;;;5082395;28;20139;-63
2021/12/10 01:02:57;;;;;;;22.75;9.48;;;;;;;;;;5080284;28;20052;-63
2021/12/10 01:05:24;;;;;;;18.63;8.73;;;;;;;;;;5081694;28;20079;-63
2021/12/10 01:07:51;;;;;;;22.38;9.50;;;;;;;;;;5081363;28;20075;-63
2021/12/10 01:10:21;;;;;;;26.58;10.02;;;;;;;;;;5085996;28;20135;-63
2021/12/10 01:12:49;;;;;;;19.73;9.10;;;;;;;;;;5083908;28;20050;-63
2021/12/10 01:28:48;;;;;;;23.35;9.75;;;;;;;;;;5084550;28;20509;-63
2021/12/10 01:31:16;;;;;;;19.85;9.50;;;;;;;;;;5080043;28;20075;-63
2021/12/10 01:33:43;;;;;;;20.02;9.15;;;;;;;;;;5080063;28;20044;-63
2021/12/10 01:36:10;;;;;;;23.95;9.15;;;;;;;;;;5081777;28;20054;-63
2021/12/10 01:38:41;;;;;;;21.63;9.18;;;;;;;;;;5075635;28;20139;-63
2021/12/10 01:41:10;;;;;;;19.10;9.05;;;;;;;;;;5078100;28;20068;-63
2021/12/10 01:43:39;;;;;;;20.55;9.32;;;;;;;;;;5083613;28;20040;-63
2021/12/10 01:46:12;;;;;;;28.05;9.68;;;;;;;;;;5076675;28;20044;-63
2021/12/10 01:48:50;;;;;;;24.60;9.80;;;;;;;;;;5076765;28;20434;-63
2021/12/10 01:51:19;;;;;;;21.27;8.27;;;;;;;;;;5078219;28;20060;-63
2021/12/10 01:53:47;;;;;;;22.83;8.98;;;;;;;;;;5076239;28;20058;-63
2021/12/10 01:56:13;;;;;;;;;;;;;;;;;;5077462;28;20044;-63
2021/12/10 01:58:40;;;;;;;22.73;9.07;;;;;;;;;;5077878;28;20014;-63
2021/12/10 02:01:13;;;;;;;20.02;9.00;;;;;;;;;;5084383;28;20074;-63
2021/12/10 02:03:40;;;;;;;16.65;8.52;;;;;;;;;;5078183;28;20075;-63
2021/12/10 02:06:07;;;;;;;19.30;9.45;;;;;;;;;;5076180;28;20047;-63
2021/12/10 02:08:35;;;;;;;18.90;8.25;;;;;;;;;;5077348;28;20406;-63
2021/12/10 02:11:02;;;;;;;17.58;8.85;;;;;;;;;;5076753;28;20503;-63
2021/12/10 02:13:29;;;;;;;20.88;8.93;;;;;;;;;;5076485;28;20147;-63
2021/12/10 02:15:55;;;;;;;18.00;8.13;;;;;;;;;;5075652;28;20135;-63
2021/12/10 02:18:22;;;;;;;18.65;8.70;;;;;;;;;;5074720;28;20048;-63
2021/12/10 02:20:49;;;;;;;24.02;9.32;;;;;;;;;;5077033;28;20143;-63
2021/12/10 02:23:15;;;;;;;20.75;8.70;;;;;;;;;;5075555;28;20050;-63
2021/12/10 02:25:42;;;;;;;14.10;6.57;;;;;;;;;;5077236;28;20062;-63
2021/12/10 02:28:10;;;;;;;18.85;8.90;;;;;;;;;;5080473;28;20051;-63
2021/12/10 02:30:39;;;;;;;19.02;7.72;;;;;;;;;;5075483;28;20055;-63
2021/12/10 02:33:05;;;;;;;16.95;7.97;;;;;;;;;;5076380;28;20519;-63
2021/12/10 02:35:32;;;;;;;16.92;8.15;;;;;;;;;;5076132;28;20579;-63
2021/12/10 02:37:59;;;;;;;24.17;8.77;;;;;;;;;;5077728;28;20044;-63
2021/12/10 02:40:27;;;;;;;19.55;8.82;;;;;;;;;;5075089;28;20979;-63
2021/12/10 02:42:55;;;;;;;20.55;8.77;;;;;;;;;;5076911;28;20079;-63
2021/12/10 02:45:21;;;;;;;;;;;;;;;;;;5076726;28;20135;-63
2021/12/10 02:47:48;;;;;;;18.10;8.38;;;;;;;;;;5078752;28;19928;-63
2021/12/10 02:50:17;;;;;;;22.52;8.10;;;;;;;;;;5076143;28;20076;-63
2021/12/10 02:52:44;;;;;;;21.58;9.20;;;;;;;;;;5081443;28;20150;-63
2021/12/10 02:55:13;;;;;;;12.63;7.28;;;;;;;;;;5075768;28;20056;-63
2021/12/10 02:57:41;;;;;;;16.85;8.88;;;;;;;;;;5077256;28;20206;-63
2021/12/10 03:00:09;;;;;;;15.45;8.93;;;;;;;;;;5075364;28;20134;-63
2021/12/10 03:02:35;;;;;;;23.55;9.05;;;;;;;;;;5077666;28;20135;-63
2021/12/10 03:05:04;;;;;;;17.38;6.50;;;;;;;;;;5076761;28;20128;-63
2021/12/10 03:07:30;;;;;;;15.05;7.93;;;;;;;;;;5076398;28;20052;-63
2021/12/10 03:09:57;;;;;;;22.30;7.28;;;;;;;;;;5076171;28;20151;-62
2021/12/10 03:12:24;;;;;;;18.08;7.95;;;;;;;;;;5076441;28;20047;-63
2021/12/10 03:14:53;;;;;;;15.63;6.22;;;;;;;;;;5075527;28;20578;-62
2021/12/10 03:17:26;;;;;;;15.55;8.13;;;;;;;;;;5074947;28;20055;-63
2021/12/10 03:19:53;;;;;;;21.40;8.80;;;;;;;;;;5076446;28;20075;-63
2021/12/10 03:22:20;;;;;;;17.23;9.07;;;;;;;;;;5078355;28;20239;-63
2021/12/10 03:24:47;;;;;;;17.40;8.60;;;;;;;;;;5080015;28;20139;-63
2021/12/10 03:27:14;;;;;;;17.20;8.25;;;;;;;;;;5080661;28;20470;-63
2021/12/10 03:29:42;;;;;;;16.35;8.45;;;;;;;;;;5077096;28;20078;-63
2021/12/10 03:32:10;;;;;;;15.95;7.57;;;;;;;;;;5076118;28;20057;-63
2021/12/10 03:34:37;;;;;;;19.55;8.27;;;;;;;;;;5076179;28;20062;-63
2021/12/10 03:37:04;;;;;;;15.07;6.93;;;;;;;;;;5076297;28;20398;-63
2021/12/10 03:39:31;;;;;;;15.02;7.03;;;;;;;;;;5078585;28;20075;-63
2021/12/10 03:41:58;;;;;;;19.67;8.13;;;;;;;;;;5076166;28;20132;-63
2021/12/10 03:44:25;;;;;;;19.60;8.40;;;;;;;;;;5080026;28;20050;-63
2021/12/10 03:46:52;;;;;;;14.57;7.95;;;;;;;;;;5076292;28;20131;-63
2021/12/10 03:49:19;;;;;;;21.55;8.57;;;;;;;;;;5083550;28;20048;-63
2021/12/10 03:51:46;;;;;;;12.95;6.45;;;;;;;;;;5076093;28;20448;-63
2021/12/10 03:54:13;;;;;;;15.57;8.55;;;;;;;;;;5081690;28;20131;-63
2021/12/10 03:56:40;;;;;;;19.13;9.02;;;;;;;;;;5073578;28;20127;-63
2021/12/10 03:59:10;;;;;;;18.50;8.93;;;;;;;;;;5076439;28;20058;-63
2021/12/10 04:01:41;;;;;;;17.00;9.10;;;;;;;;;;5082093;28;20123;-63
2021/12/10 04:04:11;;;;;;;18.67;8.75;;;;;;;;;;5081356;28;20537;-63
2021/12/10 04:06:38;;;;;;;16.13;8.68;;;;;;;;;;5082133;28;20068;-63
2021/12/10 04:09:05;;;;;;;17.48;9.50;;;;;;;;;;5080292;28;20044;-63
2021/12/10 04:11:31;;;;;;;;;;;;;;;;;;5073232;28;20153;-63
2021/12/10 04:13:58;;;;;;;17.00;8.07;;;;;;;;;;5073758;28;19971;-63
2021/12/10 04:16:27;;;;;;;16.17;8.32;;;;;;;;;;5084435;28;20131;-63
2021/12/10 04:18:55;;;;;;;19.58;8.65;;;;;;;;;;5078186;28;20048;-63
2021/12/10 04:21:21;;;;;;;16.98;8.98;;;;;;;;;;5078974;28;20122;-63
2021/12/10 04:23:48;;;;;;;12.20;7.15;;;;;;;;;;5079222;28;20083;-63
2021/12/10 04:26:16;;;;;;;19.92;8.77;;;;;;;;;;5074779;28;20044;-63
2021/12/10 04:28:43;;;;;;;;;;;;;;;;;;5078210;28;20530;-63
2021/12/10 04:31:10;;;;;;;19.98;8.65;;;;;;;;;;5075050;28;19974;-63
2021/12/10 04:33:37;;;;;;;16.83;8.77;;;;;;;;;;5076740;28;20466;-63
2021/12/10 04:36:04;;;;;;;19.25;10.25;;;;;;;;;;5078956;28;20526;-63
2021/12/10 04:38:33;;;;;;;18.00;9.80;;;;;;;;;;5079222;28;20526;-63
2021/12/10 04:41:01;;;;;;;21.73;10.07;;;;;;;;;;5080222;28;20109;-63
2021/12/10 04:43:29;;;;;;;19.00;10.40;;;;;;;;;;5083472;28;20476;-63
2021/12/10 04:45:56;;;;;;;19.15;9.60;;;;;;;;;;5083464;28;20590;-63
2021/12/10 04:48:24;;;;;;;20.63;11.27;;;;;;;;;;5079773;28;20041;-63
2021/12/10 04:50:50;;;;;;;;;;;;;;;;;;5080469;28;20083;-63
2021/12/10 04:53:17;;;;;;;18.65;10.90;;;;;;;;;;5082738;28;19972;-63
2021/12/10 04:55:45;;;;;;;21.67;10.95;;;;;;;;;;5083487;28;20135;-63
2021/12/10 04:58:11;;;;;;;20.55;11.07;;;;;;;;;;5079357;28;20130;-63
2021/12/10 05:00:42;;;;;;;21.10;11.23;;;;;;;;;;5079382;28;20494;-63
2021/12/10 05:03:10;;;;;;;22.50;10.45;;;;;;;;;;5081224;28;20154;-63
2021/12/10 05:05:37;;;;;;;23.10;12.27;;;;;;;;;;5079102;28;20147;-63
2021/12/10 05:08:05;;;;;;;21.52;10.15;;;;;;;;;;5079980;28;20044;-63
2021/12/10 05:10:32;;;;;;;23.35;10.80;;;;;;;;;;5080534;28;20048;-63
2021/12/10 05:12:59;;;;;;;27.38;12.18;;;;;;;;;;5081895;28;20094;-63
2021/12/10 05:15:27;;;;;;;20.58;11.30;;;;;;;;;;5080929;28;20134;-63
2021/12/10 05:17:54;;;;;;;24.13;11.23;;;;;;;;;;5085843;28;20086;-63
2021/12/10 05:20:24;;;;;;;22.88;11.40;;;;;;;;;;5080451;28;20183;-63
2021/12/10 05:22:50;;;;;;;24.85;12.05;;;;;;;;;;5080585;28;20058;-63
2021/12/10 05:25:18;;;;;;;19.55;10.95;;;;;;;;;;5079681;28;20166;-63
2021/12/10 05:27:45;;;;;;;27.05;13.25;;;;;;;;;;5081381;28;20753;-63
2021/12/10 05:30:13;;;;;;;22.50;12.35;;;;;;;;;;5081779;28;20696;-63
2021/12/10 05:32:40;;;;;;;23.50;12.45;;;;;;;;;;5082971;28;20091;-63
2021/12/10 05:35:06;;;;;;;24.75;12.48;;;;;;;;;;5083436;28;20147;-63
2021/12/10 05:37:33;;;;;;;23.13;12.70;;;;;;;;;;5075764;28;20131;-63
2021/12/10 05:40:00;;;;;;;25.90;12.30;;;;;;;;;;5078052;28;20052;-63
2021/12/10 05:42:27;;;;;;;30.85;15.05;;;;;;;;;;5081682;28;20094;-63
2021/12/10 05:44:53;;;;;;;30.05;13.27;;;;;;;;;;5081290;28;20048;-63
2021/12/10 05:47:20;;;;;;;23.27;13.20;;;;;;;;;;5081413;28;20495;-63
2021/12/10 05:49:46;;;;;;;29.88;12.73;;;;;;;;;;5077029;28;20136;-63
2021/12/10 05:52:14;;;;;;;31.38;13.48;;;;;;;;;;5081186;28;20572;-63
2021/12/10 05:54:43;;;;;;;27.40;13.90;;;;;;;;;;5077973;28;20047;-63
2021/12/10 05:57:10;;;;;;;26.63;13.80;;;;;;;;;;5084640;28;20086;-63
2021/12/10 05:59:37;;;;;;;20.17;10.27;;;;;;;;;;5081903;28;21158;-63
2021/12/10 06:02:03;;;;;;;27.50;13.75;;;;;;;;;;5077853;28;20048;-63
2021/12/10 06:04:30;;;;;;;28.85;14.30;;;;;;;;;;5080157;28;20108;-63
2021/12/10 06:06:56;;;;;;;32.78;13.52;;;;;;;;;;5081299;28;20396;-63
2021/12/10 06:09:23;;;;;;;26.73;13.98;;;;;;;;;;5078121;28;20563;-63
2021/12/10 06:11:50;;;;;;;29.80;14.02;;;;;;;;;;5080654;28;20748;-63
2021/12/10 06:14:16;;;;;;;29.60;14.60;;;;;;;;;;5074669;28;20134;-63
2021/12/10 06:16:43;;;;;;;23.02;11.52;;;;;;;;;;5078515;28;20048;-63
2021/12/10 06:19:10;;;;;;;28.30;13.50;;;;;;;;;;5084976;28;20065;-63
2021/12/10 06:21:38;;;;;;;26.98;13.93;;;;;;;;;;5084365;28;20132;-63
2021/12/10 06:24:05;;;;;;;29.48;14.75;;;;;;;;;;5083610;28;20139;-63
2021/12/10 06:26:31;;;;;;;21.10;11.35;;;;;;;;;;5076925;28;20094;-63
2021/12/10 06:28:58;;;;;;;28.92;14.23;;;;;;;;;;5078739;28;20186;-63
2021/12/10 06:31:25;;;;;;;31.10;15.60;;;;;;;;;;5079688;28;20087;-63
2021/12/10 06:33:52;;;;;;;29.63;15.60;;;;;;;;;;5079121;28;20056;-63
2021/12/10 06:36:19;;;;;;;32.97;16.25;;;;;;;;;;5085290;28;20575;-63
2021/12/10 06:38:47;;;;;;;27.70;14.95;;;;;;;;;;5078001;28;20458;-63
2021/12/10 06:41:14;;;;;;;24.30;10.93;;;;;;;;;;5076153;28;20143;-63
2021/12/10 06:43:41;;;;;;;28.45;14.95;;;;;;;;;;5079323;28;20055;-63
2021/12/10 06:46:07;;;;;;;;;;;;;;;;;;5079676;28;20128;-63
2021/12/10 06:48:34;;;;;;;29.00;13.88;;;;;;;;;;5078043;28;19924;-63
2021/12/10 06:51:09;;;;;;;32.50;14.93;;;;;;;;;;5080281;28;20053;-63
2021/12/10 06:53:37;;;;;;;31.08;14.88;;;;;;;;;;5078348;28;20044;-63
2021/12/10 06:56:04;;;;;;;32.83;14.70;;;;;;;;;;5078615;28;20136;-63
2021/12/10 06:58:33;;;;;;;35.17;15.43;;;;;;;;;;5082232;28;20097;-63
2021/12/10 07:01:06;;;;;;;29.13;14.60;;;;;;;;;;5080058;28;20151;-63
2021/12/10 07:03:34;;;;;;;33.72;16.33;;;;;;;;;;5076668;28;20048;-63
2021/12/10 07:06:01;;;;;;;33.35;15.60;;;;;;;;;;5080126;28;20055;-63
2021/12/10 07:08:29;;;;;;;22.23;11.70;;;;;;;;;;5075407;28;20055;-63
2021/12/10 07:10:56;;;;;;;34.10;14.55;;;;;;;;;;5073979;28;20096;-63
2021/12/10 07:13:24;;;;;;;30.02;14.65;;;;;;;;;;5077664;28;20105;-63
2021/12/10 07:15:50;;;;;;;34.47;16.10;;;;;;;;;;5074702;28;20054;-63
2021/12/10 07:18:19;;;;;;;36.17;16.67;;;;;;;;;;5078426;28;20486;-63
2021/12/10 07:20:46;;;;;;;36.00;16.83;;;;;;;;;;5081941;28;20615;-63
2021/12/10 07:23:13;;;;;;;36.58;17.17;;;;;;;;;;5080090;28;20127;-63
2021/12/10 07:25:39;;;;;;;36.78;16.60;;;;;;;;;;5075286;28;20135;-63
2021/12/10 07:28:06;;;;;;;37.65;17.63;;;;;;;;;;5083957;28;20048;-63
2021/12/10 07:30:33;;;;;;;39.33;17.65;;;;;;;;;;5082454;28;20058;-63
2021/12/10 07:33:00;;;;;;;36.20;17.08;;;;;;;;;;5082980;28;20064;-63
2021/12/10 07:35:27;;;;;;;35.45;16.38;;;;;;;;;;5078843;28;20419;-63
2021/12/10 07:37:54;;;;;;;37.22;18.73;;;;;;;;;;5081562;28;20130;-63
2021/12/10 07:40:23;;;;;;;39.35;18.08;;;;;;;;;;5077348;28;20135;-63
2021/12/10 07:42:50;;;;;;;38.83;17.63;;;;;;;;;;5077785;28;20052;-63
2021/12/10 07:45:17;;;;;;;37.50;17.43;;;;;;;;;;5078843;28;20135;-63
2021/12/10 07:47:45;;;;;;;26.90;13.07;;;;;;;;;;5078234;28;20492;-63
2021/12/10 07:50:15;;;;;;;37.03;17.20;;;;;;;;;;5082339;28;20502;-63
2021/12/10 07:52:43;;;;;;;37.55;17.85;;;;;;;;;;5078774;28;20144;-63
2021/12/10 07:55:11;;;;;;;39.33;18.55;;;;;;;;;;5075865;28;20128;-63
2021/12/10 07:57:38;;;;;;;36.58;18.15;;;;;;;;;;5080224;28;20130;-63
2021/12/10 08:00:06;;;;;;;35.90;18.45;;;;;;;;;;5078217;28;20139;-63
2021/12/10 08:02:34;;;;;;;37.00;18.15;;;;;;;;;;5075570;28;20048;-63
2021/12/10 08:05:01;;;;;;;30.77;16.33;;;;;;;;;;5076229;28;20048;-63
2021/12/10 08:07:28;;;;;;;39.85;17.60;;;;;;;;;;5080735;28;20172;-63
2021/12/10 08:09:54;;;;;;;36.88;18.27;;;;;;;;;;5078240;28;20484;-63
2021/12/10 08:12:21;;;;;;;34.42;16.25;;;;;;;;;;5075699;28;20571;-63
2021/12/10 08:14:52;;;;;;;35.13;17.75;;;;;;;;;;5080310;28;20135;-63
2021/12/10 08:17:19;;;;;;;37.38;18.17;;;;;;;;;;5080664;28;20048;-63
2021/12/10 08:19:47;;;;;;;33.17;18.17;;;;;;;;;;5060429;28;20464;-63
2021/12/10 08:22:14;;;;;;;38.03;18.48;;;;;;;;;;5082289;28;20078;-63
2021/12/10 08:24:41;;;;;;;34.25;17.45;;;;;;;;;;5083381;28;20146;-63
2021/12/10 08:27:08;;;;;;;34.85;18.05;;;;;;;;;;5084763;28;20132;-63
2021/12/10 08:29:34;;;;;;;34.60;18.00;;;;;;;;;;5082602;28;20072;-63
2021/12/10 08:32:02;;;;;;;32.92;18.10;;;;;;;;;;5079422;28;20684;-63
2021/12/10 08:34:30;;;;;;;36.42;17.38;;;;;;;;;;5079808;28;20052;-63
2021/12/10 08:36:56;;;;;;;35.35;17.40;;;;;;;;;;5082666;28;20132;-63
2021/12/10 08:39:23;;;;;;;29.55;14.23;;;;;;;;;;5080581;28;20613;-63
2021/12/10 08:41:51;;;;;;;33.65;17.92;;;;;;;;;;5083006;28;20411;-63
2021/12/10 08:44:17;;;;;;;33.47;17.92;;;;;;;;;;5084629;28;20050;-63
2021/12/10 08:46:44;;;;;;;33.50;16.83;;;;;;;;;;5084819;28;20079;-63
2021/12/10 08:49:13;;;;;;;35.75;17.77;;;;;;;;;;5082638;28;20048;-63
2021/12/10 08:51:59;;;;;;;34.60;17.60;;;;;;;;;;5080454;28;20076;-63
2021/12/10 08:54:29;;;;;;;33.65;17.80;;;;;;;;;;5085487;28;20447;-63
2021/12/10 08:56:56;;;;;;;38.15;17.77;;;;;;;;;;5081179;28;20094;-63
2021/12/10 08:59:24;;;;;;;;;;;;;;;;;;5080914;28;20127;-63
2021/12/10 09:01:54;;;;;;;31.37;16.03;;;;;;;;;;5085030;28;19962;-63
2021/12/10 09:04:21;;;;;;;28.88;16.08;;;;;;;;;;5079287;28;20049;-63
2021/12/10 09:06:49;;;;;;;26.02;13.70;;;;;;;;;;5086461;28;20071;-63
2021/12/10 09:09:17;;;;;;;33.15;15.93;;;;;;;;;;5077177;28;20136;-63
2021/12/10 09:11:46;;;;;;;30.92;17.00;;;;;;;;;;5081392;28;20614;-63
2021/12/10 09:14:19;;;;;;;32.13;17.63;;;;;;;;;;5079878;28;20040;-63
2021/12/10 09:16:46;;;;;;;36.17;17.98;;;;;;;;;;5079531;28;20074;-63
2021/12/10 09:19:14;;;;;;;34.13;17.83;;;;;;;;;;5080770;28;20086;-63
2021/12/10 09:21:42;;;;;;;32.30;17.83;;;;;;;;;;5084398;28;20472;-63
2021/12/10 09:24:10;;;;;;;34.03;18.52;;;;;;;;;;5085741;28;20139;-63
2021/12/10 09:26:38;;;;;;;31.75;17.73;;;;;;;;;;5081997;28;20091;-63
2021/12/10 09:29:06;;;;;;;34.15;18.67;;;;;;;;;;5079369;28;20127;-63
2021/12/10 09:31:36;;;;;;;33.65;17.63;;;;;;;;;;5080381;28;20519;-63
2021/12/10 09:34:03;;;;;;;29.23;16.02;;;;;;;;;;5080889;28;20041;-63
2021/12/10 09:36:29;;;;;;;26.95;13.65;;;;;;;;;;5081853;28;20130;-63
2021/12/10 09:38:56;;;;;;;31.67;17.95;;;;;;;;;;5083279;28;20132;-63
2021/12/10 09:41:25;;;;;;;30.77;16.23;;;;;;;;;;5077409;28;20099;-63
2021/12/10 09:43:51;;;;;;;27.83;16.00;;;;;;;;;;5079082;28;20517;-63
2021/12/10 09:46:20;;;;;;;29.55;16.80;;;;;;;;;;5077324;28;20123;-63
2021/12/10 09:48:47;;;;;;;28.65;16.63;;;;;;;;;;5075433;28;20054;-63
2021/12/10 09:51:21;;;;;;;29.80;17.75;;;;;;;;;;5084712;28;20084;-63
2021/12/10 09:53:49;;;;;;;31.30;17.48;;;;;;;;;;5077705;28;20041;-63
2021/12/10 09:56:16;;;;;;;27.00;15.98;;;;;;;;;;5078828;28;20131;-63
2021/12/10 09:58:47;;;;;;;30.70;17.77;;;;;;;;;;5077169;28;20083;-63
2021/12/10 10:01:26;;;;;;;28.33;17.30;;;;;;;;;;5080459;28;20131;-63
2021/12/10 10:04:00;;;;;;;27.15;16.58;;;;;;;;;;5074047;28;20078;-63
2021/12/10 10:06:30;;;;;;;31.60;17.92;;;;;;;;;;5079291;28;20521;-63
2021/12/10 10:08:56;;;;;;;29.90;17.23;;;;;;;;;;5078861;28;20127;-63
2021/12/10 10:11:42;;;;;;;31.52;17.08;;;;;;;;;;5081789;28;20056;-63
2021/12/10 10:14:08;;;;;;;29.13;17.55;;;;;;;;;;5080922;28;20041;-63
2021/12/10 10:16:35;;;;;;;30.13;17.25;;;;;;;;;;5082216;28;20180;-63
2021/12/10 10:19:05;;;;;;;28.63;17.45;;;;;;;;;;5078057;28;20048;-63
2021/12/10 10:21:35;;;;;;;28.63;17.48;;;;;;;;;;5082517;28;20517;-63
2021/12/10 10:24:02;;;;;;;28.88;17.98;;;;;;;;;;5078360;28;20131;-63
2021/12/10 10:26:32;;;;;;;30.23;17.80;;;;;;;;;;5079985;28;20044;-63
2021/12/10 10:29:00;;;;;;;31.75;16.55;;;;;;;;;;5081375;28;20058;-63
2021/12/10 10:31:27;;;;;;;29.45;17.98;;;;;;;;;;5079854;28;20091;-63
2021/12/10 10:33:57;;;;;;;29.98;16.77;;;;;;;;;;5081210;28;20048;-63
2021/12/10 10:36:27;;;;;;;28.02;17.90;;;;;;;;;;5079052;28;20086;-63
2021/12/10 10:39:00;;;;;;;28.80;16.55;;;;;;;;;;5080775;28;20135;-63
2021/12/10 10:41:28;;;;;;;29.35;17.42;;;;;;;;;;5079644;28;20163;-62
2021/12/10 10:43:55;;;;;;;26.60;16.50;;;;;;;;;;5084248;28;20134;-63
2021/12/10 10:46:23;;;;;;;25.90;17.15;;;;;;;;;;5079892;28;20052;-63
2021/12/10 10:48:54;;;;;;;29.40;17.15;;;;;;;;;;5079933;28;20048;-63
2021/12/10 10:51:29;;;;;;;25.90;16.33;;;;;;;;;;5079951;28;20102;-63
2021/12/10 10:53:58;;;;;;;27.90;16.83;;;;;;;;;;5076681;28;20167;-63
2021/12/10 10:56:29;;;;;;;31.77;18.23;;;;;;;;;;5081065;28;20074;-63
2021/12/10 10:59:01;;;;;;;29.65;16.83;;;;;;;;;;5082081;28;20044;-63
2021/12/10 11:01:32;;;;;;;32.15;18.70;;;;;;;;;;5081538;28;20559;-63
2021/12/10 11:04:18;;;;;;;31.15;18.98;;;;;;;;;;5076003;28;20130;-63
2021/12/10 11:06:47;;;;;;;36.58;20.90;;;;;;;;;;5076673;28;20495;-63
2021/12/10 11:09:17;;;;;;;38.75;21.83;;;;;;;;;;5081951;28;20084;-63
2021/12/10 11:11:53;;;;;;;37.00;20.80;;;;;;;;;;5080251;28;20131;-63
2021/12/10 11:14:26;;;;;;;35.70;21.45;;;;;;;;;;5079110;28;20076;-63
2021/12/10 11:16:54;;;;;;;35.42;21.23;;;;;;;;;;5072505;28;20143;-63
2021/12/10 11:19:52;;;;;;;36.88;20.45;;;;;;;;;;5077003;28;20055;-63
2021/12/10 11:22:21;;;;;;;35.33;21.13;;;;;;;;;;5082520;28;20103;-63
2021/12/10 11:24:51;;;;;;;36.95;21.38;;;;;;;;;;5081744;28;20456;-63
2021/12/10 11:27:19;;;;;;;39.53;21.88;;;;;;;;;;5079761;28;20048;-63
2021/12/10 11:29:51;;;;;;;35.28;20.58;;;;;;;;;;5073339;28;20515;-63
2021/12/10 11:32:34;;;;;;;36.03;21.65;;;;;;;;;;5076411;28;20677;-63
2021/12/10 11:35:05;;;;;;;34.03;20.58;;;;;;;;;;5077158;28;20059;-63
2021/12/10 11:37:44;;;;;;;33.28;20.20;;;;;;;;;;5066464;28;20056;-63
2021/12/10 11:40:23;;;;;;;35.35;20.52;;;;;;;;;;5077349;28;20084;-63
2021/12/10 11:42:57;;;;;;;34.42;19.90;;;;;;;;;;5077343;28;20131;-63
2021/12/10 11:45:31;;;;;;;32.90;19.17;;;;;;;;;;5082282;28;20134;-63
2021/12/10 11:48:08;;;;;;;30.17;18.75;;;;;;;;;;5081498;28;20044;-63
2021/12/10 11:50:36;;;;;;;28.75;18.15;;;;;;;;;;5081482;28;20163;-63
2021/12/10 11:53:06;;;;;;;33.08;19.60;;;;;;;;;;5084745;28;20455;-63
2021/12/10 11:55:34;;;;;;;33.42;19.70;;;;;;;;;;5083099;28;20484;-63
2021/12/10 11:58:00;;;;;;;31.52;19.48;;;;;;;;;;5079864;28;20164;-63
2021/12/10 12:00:30;;;;;;;31.00;18.63;;;;;;;;;;5086241;28;20126;-63
2021/12/10 12:03:02;;;;;;;34.05;19.98;;;;;;;;;;5080033;28;20052;-63
2021/12/10 12:05:31;;;;;;;33.15;19.40;;;;;;;;;;5080757;28;20102;-63
2021/12/10 12:08:00;;;;;;;33.05;20.05;;;;;;;;;;5080650;28;20041;-63
2021/12/10 12:10:39;;;;;;;36.83;20.83;;;;;;;;;;5083495;28;20037;-63
2021/12/10 12:13:24;;;;;;;33.17;20.40;;;;;;;;;;5078578;28;20126;-63
2021/12/10 12:16:00;;;;;;;32.75;19.05;;;;;;;;;;5081451;28;20072;-63
2021/12/10 12:18:29;;;;;;;30.70;19.13;;;;;;;;;;5078645;28;20045;-63
2021/12/10 12:21:00;;;;;;;29.00;18.55;;;;;;;;;;5081964;28;20146;-63
2021/12/10 12:26:23;;;;;;;29.25;18.48;;;;;;;;;;5076971;28;20083;-63
2021/12/10 12:29:11;;;;;;;32.65;18.80;;;;;;;;;;5080349;28;20056;-63
2021/12/10 12:31:40;;;;;;;34.38;18.60;;;;;;;;;;5082639;28;20067;-63
2021/12/10 12:34:08;;;;;;;29.13;18.08;;;;;;;;;;5085833;28;20047;-63
2021/12/10 12:36:50;;;;;;;32.40;19.98;;;;;;;;;;5078924;28;20135;-63
2021/12/10 12:39:27;;;;;;;32.53;20.17;;;;;;;;;;5084825;28;20054;-63
2021/12/10 12:41:53;;;;;;;32.85;19.27;;;;;;;;;;5083569;28;20530;-63
2021/12/10 12:44:25;;;;;;;34.95;21.08;;;;;;;;;;5085275;28;20101;-63
2021/12/10 12:47:13;;;;;;;34.50;20.33;;;;;;;;;;5080748;28;20054;-63
2021/12/10 12:49:46;;;;;;;30.48;19.35;;;;;;;;;;5081205;28;20548;-63
2021/12/10 12:52:13;;;;;;;32.30;18.77;;;;;;;;;;5081917;28;20101;-63
2021/12/10 12:54:42;;;;;;;30.08;19.15;;;;;;;;;;5083155;28;20090;-63
2021/12/10 12:57:10;;;;;;;32.15;18.40;;;;;;;;;;5087316;28;20481;-63
2021/12/10 12:59:56;;;;;;;32.58;17.88;;;;;;;;;;5080107;28;20054;-63
2021/12/10 13:02:26;;;;;;;33.00;18.70;;;;;;;;;;5080825;28;20076;-63
2021/12/10 13:04:54;;;;;;;32.03;18.63;;;;;;;;;;5083071;28;20059;-63
2021/12/10 13:07:21;;;;;;;34.37;19.00;;;;;;;;;;5084217;28;20048;-63
2021/12/10 13:09:56;;;;;;;32.63;19.55;;;;;;;;;;5078644;28;20063;-63
2021/12/10 13:15:28;;;;;;;33.83;20.10;;;;;;;;;;5032887;28;20056;-63
2021/12/10 13:17:56;;;;;;;;;;;;;;;;;;5072392;28;20053;-63
2021/12/10 13:20:31;;;;;;;31.90;18.25;;;;;;;;;;5079827;28;19973;-63
2021/12/10 13:22:59;;;;;;;33.53;19.60;;;;;;;;;;5081891;28;20048;-63
2021/12/10 13:25:27;;;;;;;36.05;20.15;;;;;;;;;;5079287;28;20094;-63
2021/12/10 13:27:57;;;;;;;32.33;18.92;;;;;;;;;;5083571;28;20134;-63
2021/12/10 13:30:26;;;;;;;37.08;19.88;;;;;;;;;;5079833;28;20479;-63
2021/12/10 13:32:53;;;;;;;36.03;20.92;;;;;;;;;;5085842;28;20059;-63
2021/12/10 13:35:21;;;;;;;32.30;19.08;;;;;;;;;;5085180;28;20440;-63
2021/12/10 13:37:50;;;;;;;37.65;21.42;;;;;;;;;;5078923;28;20131;-63
2021/12/10 13:40:17;;;;;;;37.67;21.33;;;;;;;;;;5076398;28;20448;-63
2021/12/10 13:42:44;;;;;;;39.05;21.83;;;;;;;;;;5086374;28;20101;-63
2021/12/10 13:45:19;;;;;;;36.70;19.98;;;;;;;;;;5080703;28;20071;-63
2021/12/10 13:47:53;;;;;;;38.17;21.42;;;;;;;;;;5084743;28;20080;-63
2021/12/10 13:50:22;;;;;;;40.15;22.45;;;;;;;;;;5079959;28;20052;-63
2021/12/10 13:52:51;;;;;;;38.05;21.50;;;;;;;;;;5081522;28;20048;-63
2021/12/10 13:55:28;;;;;;;38.03;21.70;;;;;;;;;;5081512;28;20056;-63
2021/12/10 13:58:07;;;;;;;45.15;22.88;;;;;;;;;;5081548;28;20162;-63
2021/12/10 14:00:34;;;;;;;40.85;22.33;;;;;;;;;;5080608;28;20045;-63
2021/12/10 14:03:01;;;;;;;42.45;23.17;;;;;;;;;;5079673;28;20751;-63
2021/12/10 14:05:30;;;;;;;43.95;23.05;;;;;;;;;;5084392;28;20054;-63
2021/12/10 14:08:01;;;;;;;43.45;23.13;;;;;;;;;;5080693;28;20053;-63
2021/12/10 14:10:34;;;;;;;39.97;22.73;;;;;;;;;;5079410;28;20044;-63
2021/12/10 14:13:06;;;;;;;43.58;23.15;;;;;;;;;;5082217;28;20507;-63
2021/12/10 14:15:59;;;;;;;43.15;21.75;;;;;;;;;;5078813;28;20127;-63
2021/12/10 14:18:46;;;;;;;42.60;22.48;;;;;;;;;;5085634;28;20051;-63
2021/12/10 14:21:42;;;;;;;42.00;22.50;;;;;;;;;;5082240;28;20044;-63
2021/12/10 14:24:44;;;;;;;42.42;22.95;;;;;;;;;;5079261;28;20610;-63
2021/12/10 14:27:31;;;;;;;42.20;22.80;;;;;;;;;;5080567;28;20040;-63
2021/12/10 14:30:20;;;;;;;40.83;22.85;;;;;;;;;;5075921;28;20056;-63
2021/12/10 14:32:58;;;;;;;49.42;23.35;;;;;;;;;;5078850;28;20417;-63
2021/12/10 14:35:25;;;;;;;42.63;22.00;;;;;;;;;;5080427;28;20064;-63
2021/12/10 14:37:52;;;;;;;;;;;;;;;;;;5067142;28;20044;-63
2021/12/10 14:40:48;;;;;;;45.40;22.02;;;;;;;;;;5081745;28;19924;-63
2021/12/10 14:43:17;;;;;;;42.88;22.52;;;;;;;;;;5079015;28;20052;-63
2021/12/10 14:46:02;;;;;;;48.22;23.80;;;;;;;;;;5080959;28;20461;-63
2021/12/10 14:48:31;;;;;;;43.95;22.13;;;;;;;;;;5083842;28;20135;-63
2021/12/10 14:51:18;;;;;;;45.95;23.23;;;;;;;;;;5082038;28;20066;-63
2021/12/10 14:54:11;;;;;;;41.38;22.25;;;;;;;;;;5080524;28;20347;-63
2021/12/10 14:57:02;;;;;;;52.13;22.77;;;;;;;;;;5079293;28;20044;-63